Time;durP1;ratioP1;P1;durP2;ratioP2;P2;SDS_P1;SDS_P2;PMS_P1;PMS_P2;Temp;Humidity;BMP_temperature;BMP_pressure;BME280_temperature;BME280_humidity;BME280_pressure;Samples;Min_cycle;Max_cycle;Signal;HPM_P1;HPM_P2
2023/03/07 08:15:20;;;;;;;;;40.75;37.00;;;;;;;;5104360;27;15167;-71
2023/03/07 08:17:45;;;;;;;;;;;;;;;;;;5110355;28;8804;-72
2023/03/07 08:20:10;;;;;;;;;53.50;43.00;;;;;;;;5107488;28;8906;-73
2023/03/07 08:22:36;;;;;;;;;24.00;21.00;;;;;;;;5104270;28;14383;-74
2023/03/07 08:25:03;;;;;;;;;27.25;26.25;;;;;;;;5104166;28;13531;-74
2023/03/07 08:27:28;;;;;;;;;28.00;25.25;;;;;;;;5104216;28;13511;-72
2023/03/07 08:29:54;;;;;;;;;30.50;27.75;;;;;;;;5107646;28;11564;-75
2023/03/07 08:32:19;;;;;;;;;30.50;28.25;;;;;;;;5103776;28;14275;-71
2023/03/07 08:34:44;;;;;;;;;32.25;27.75;;;;;;;;5103694;28;13481;-74
2023/03/07 08:37:09;;;;;;;;;21.67;18.33;;;;;;;;5103399;28;13517;-74
2023/03/07 08:39:35;;;;;;;;;24.25;17.25;;;;;;;;5107566;28;8795;-74
2023/03/07 08:42:00;;;;;;;;;;;;;;;;;;5110004;28;8772;-70
2023/03/07 08:44:25;;;;;;;;;17.00;15.80;;;;;;;;5107759;28;8760;-73
2023/03/07 08:46:51;;;;;;;;;18.67;18.00;;;;;;;;5103607;28;14214;-74
2023/03/07 08:49:16;;;;;;;;;;;;;;;;;;5108817;28;8833;-73
2023/03/07 08:51:41;;;;;;;;;10.60;10.20;;;;;;;;5107437;28;8772;-74
2023/03/07 08:54:06;;;;;;;;;10.67;10.67;;;;;;;;5103406;28;13479;-75
2023/03/07 08:56:31;;;;;;;;;16.00;15.00;;;;;;;;5103092;28;13591;-74
2023/03/07 08:58:57;;;;;;;;;15.67;13.00;;;;;;;;5103213;28;13459;-75
2023/03/07 09:01:22;;;;;;;;;15.33;12.67;;;;;;;;5103541;28;13583;-75
2023/03/07 09:03:47;;;;;;;;;12.00;9.75;;;;;;;;5103333;28;13479;-74
2023/03/07 09:06:16;;;;;;;;;14.75;12.25;;;;;;;;5103486;28;13436;-74
2023/03/07 09:08:41;;;;;;;;;9.75;8.00;;;;;;;;5101924;28;13509;-75
2023/03/07 09:11:07;;;;;;;;;10.00;7.67;;;;;;;;5102537;28;13471;-74
2023/03/07 09:13:32;;;;;;;;;10.00;9.00;;;;;;;;5102336;28;14251;-75
2023/03/07 09:15:58;;;;;;;;;13.00;12.75;;;;;;;;5103162;28;13704;-75
2023/03/07 09:18:23;;;;;;;;;10.00;10.00;;;;;;;;5103257;28;13473;-75
2023/03/07 09:20:48;;;;;;;;;11.67;9.67;;;;;;;;5103066;28;13576;-74
2023/03/07 09:23:13;;;;;;;;;10.00;8.67;;;;;;;;5102837;28;14291;-73
2023/03/07 09:25:39;;;;;;;;;11.67;10.00;;;;;;;;5094944;28;13442;-74
2023/03/07 09:28:04;;;;;;;;;7.00;7.00;;;;;;;;5089329;28;14983;-74
2023/03/07 09:30:30;;;;;;;;;8.00;8.00;;;;;;;;5087588;28;14984;-72
2023/03/07 09:32:55;;;;;;;;;8.25;8.25;;;;;;;;5089278;28;13375;-73
2023/03/07 09:35:21;;;;;;;;;10.60;9.20;;;;;;;;5087939;28;13614;-73
2023/03/07 09:37:46;;;;;;;;;8.00;8.00;;;;;;;;5089376;28;13485;-74
2023/03/07 09:40:16;;;;;;;;;11.00;9.00;;;;;;;;5089183;28;13414;-73
2023/03/07 09:42:42;;;;;;;;;7.50;5.00;;;;;;;;5093041;28;8799;-74
2023/03/07 09:45:10;;;;;;;;;11.00;7.00;;;;;;;;5089237;28;13980;-74
2023/03/07 09:47:35;;;;;;;;;10.20;9.20;;;;;;;;5088606;28;13562;-74
2023/03/07 09:50:02;;;;;;;;;9.00;8.00;;;;;;;;5087763;28;13518;-74
2023/03/07 09:52:29;;;;;;;;;10.00;8.75;;;;;;;;5088853;28;13475;-74
2023/03/07 09:55:02;;;;;;;;;9.20;9.20;;;;;;;;5089216;28;13575;-74
2023/03/07 09:57:31;;;;;;;;;10.20;7.80;;;;;;;;5088608;28;14402;-74
2023/03/07 10:00:02;;;;;;;;;9.25;8.00;;;;;;;;5089269;28;13416;-74
2023/03/07 10:02:37;;;;;;;;;9.40;8.00;;;;;;;;5087628;28;13410;-74
2023/03/07 10:05:21;;;;;;;;;9.60;7.60;;;;;;;;5088365;28;13422;-73
2023/03/07 10:07:46;;;;;;;;;7.00;7.00;;;;;;;;5088896;28;13417;-73
2023/03/07 10:10:22;;;;;;;;;9.75;9.00;;;;;;;;5118388;22;15281;-68
2023/03/07 10:13:06;;;;;;;;;8.40;8.40;;;;;;;;5045815;28;13532;-70
2023/03/07 10:15:35;;;;;;;;;11.20;8.00;;;;;;;;5046033;28;13549;-69
2023/03/07 10:18:04;;;;;;;;;10.80;8.00;;;;;;;;5047449;28;14208;-69
2023/03/07 10:20:30;;;;;;;;;4.75;4.50;;;;;;;;5050871;28;9584;-69
2023/03/07 10:23:13;;;;;;;;;7.50;7.50;;;;;;;;5047268;28;13310;-69
2023/03/07 10:25:48;;;;;;;;;8.00;8.00;;;;;;;;5047377;28;13391;-69
2023/03/07 10:28:21;;;;;;;;;7.25;7.25;;;;;;;;5057675;28;14100;-70
2023/03/07 10:30:48;;;;;;;;;8.00;6.75;;;;;;;;5067294;28;13383;-68
2023/03/07 10:33:17;;;;;;;;;7.50;6.50;;;;;;;;5067152;28;13406;-68
2023/03/07 10:35:42;;;;;;;;;;;;;;;;;;5073537;28;8881;-68
2023/03/07 10:38:07;;;;;;;;;;;;;;;;;;5071517;28;7532;-68
2023/03/07 10:40:32;;;;;;;;;;;;;;;;;;5072056;28;7551;-68
2023/03/07 10:42:57;;;;;;;;;;;;;;;;;;5072962;28;8857;-69
2023/03/07 10:45:22;;;;;;;;;;;;;;;;;;5072508;28;7528;-68
2023/03/07 10:47:48;;;;;;;;;;;;;;;;;;5072266;28;8048;-69
2023/03/07 10:50:23;;;;;;;;;6.00;6.00;;;;;;;;5070458;28;7524;-69
2023/03/07 10:52:54;;;;;;;;;8.60;8.00;;;;;;;;5066565;28;14105;-69
2023/03/07 10:55:34;;;;;;;;;7.20;5.00;;;;;;;;5066830;28;14242;-68
2023/03/07 10:58:18;;;;;;;;;9.20;8.00;;;;;;;;5066234;28;13403;-69
2023/03/07 11:00:44;;;;;;;;;9.00;6.50;;;;;;;;5066676;28;13458;-71
2023/03/07 11:03:22;;;;;;;;;5.20;4.40;;;;;;;;5066618;28;13427;-69
2023/03/07 11:05:47;;;;;;;;;14.00;14.00;;;;;;;;5066471;28;13566;-68
2023/03/07 11:08:20;;;;;;;;;7.00;7.00;;;;;;;;5066397;28;13564;-69
2023/03/07 11:10:45;;;;;;;;;8.40;7.40;;;;;;;;5066616;28;13517;-68
2023/03/07 11:13:13;;;;;;;;;6.67;6.67;;;;;;;;5064621;28;13544;-68
2023/03/07 11:15:39;;;;;;;;;7.00;7.00;;;;;;;;5065673;28;13603;-68
2023/03/07 11:18:23;;;;;;;;;7.00;7.00;;;;;;;;5065991;28;13498;-69
2023/03/07 11:20:49;;;;;;;;;7.67;7.00;;;;;;;;5066118;28;13424;-70
2023/03/07 11:23:29;;;;;;;;;11.00;7.80;;;;;;;;5066127;28;13357;-68
2023/03/07 11:25:55;;;;;;;;;9.80;7.80;;;;;;;;5065865;28;13481;-69
2023/03/07 11:28:29;;;;;;;;;9.75;9.75;;;;;;;;5065734;28;14495;-69
2023/03/07 11:31:03;;;;;;;;;12.25;7.75;;;;;;;;5065822;28;13480;-69
2023/03/07 11:33:32;;;;;;;;;13.00;12.00;;;;;;;;5065100;28;13526;-68
2023/03/07 11:35:58;;;;;;;;;;;;;;;;;;5072031;28;8792;-70
2023/03/07 11:38:24;;;;;;;;;;;;;;;;;;5070964;28;7532;-69
2023/03/07 11:40:49;;;;;;;;;;;;;;;;;;5071048;28;7536;-69
2023/03/07 11:43:14;;;;;;;;;;;;;;;;;;5071141;28;7533;-69
2023/03/07 11:45:45;;;;;;;;;18.40;12.20;;;;;;;;5069252;28;7524;-69
2023/03/07 11:48:29;;;;;;;;;13.80;13.20;;;;;;;;5065310;28;13517;-68
2023/03/07 11:50:58;;;;;;;;;12.25;11.50;;;;;;;;5064896;28;13477;-69
2023/03/07 11:53:35;;;;;;;;;14.50;13.50;;;;;;;;5065245;28;13563;-69
2023/03/07 11:56:19;;;;;;;;;12.50;9.25;;;;;;;;5064210;28;14217;-69
2023/03/07 11:59:03;;;;;;;;;20.00;16.50;;;;;;;;5065350;28;13593;-69
2023/03/07 12:02:01;;;;;;;;;14.20;14.20;;;;;;;;5065408;28;13577;-68
2023/03/07 12:04:35;;;;;;;;;17.20;14.60;;;;;;;;5042798;28;14234;-69
2023/03/07 12:07:06;;;;;;;;;20.60;17.40;;;;;;;;5043021;28;13371;-69
2023/03/07 12:09:51;;;;;;;;;22.40;18.20;;;;;;;;5042162;28;13521;-68
2023/03/07 12:12:26;;;;;;;;;16.20;14.60;;;;;;;;5042508;28;13462;-68
2023/03/07 12:15:00;;;;;;;;;12.00;10.50;;;;;;;;5046304;28;8820;-69
2023/03/07 12:17:34;;;;;;;;;21.00;18.25;;;;;;;;5042874;28;13356;-68
2023/03/07 12:20:06;;;;;;;;;19.20;17.40;;;;;;;;5042650;28;14054;-68
2023/03/07 12:23:01;;;;;;;;;17.00;15.00;;;;;;;;5042441;28;13363;-68
2023/03/07 12:25:32;;;;;;;;;21.75;21.75;;;;;;;;5029889;28;13331;-67
2023/03/07 12:28:12;;;;;;;;;17.60;17.20;;;;;;;;5042080;28;14350;-68
2023/03/07 12:30:47;;;;;;;;;17.60;16.60;;;;;;;;5042309;28;13376;-68
2023/03/07 12:33:34;;;;;;;;;18.40;15.60;;;;;;;;5042546;28;13620;-68
2023/03/07 12:36:05;;;;;;;;;16.25;13.75;;;;;;;;5042812;28;13361;-69
2023/03/07 12:38:44;;;;;;;;;18.60;14.60;;;;;;;;5042383;28;13448;-69
2023/03/07 12:41:19;;;;;;;;;8.00;7.75;;;;;;;;5067767;28;8804;-69
2023/03/07 12:43:50;;;;;;;;;11.40;11.20;;;;;;;;5064838;28;14226;-69
2023/03/07 12:46:33;;;;;;;;;16.00;13.00;;;;;;;;5064960;28;13464;-69
2023/03/07 12:48:59;;;;;;;;;16.25;12.75;;;;;;;;5064413;28;13463;-68
2023/03/07 12:51:35;;;;;;;;;10.00;7.75;;;;;;;;5068568;28;11209;-69
2023/03/07 12:54:09;;;;;;;;;12.60;12.60;;;;;;;;5065165;28;14248;-69
2023/03/07 12:56:35;;;;;;;;;17.25;15.00;;;;;;;;5065224;28;13519;-69
2023/03/07 12:59:13;;;;;;;;;22.00;17.50;;;;;;;;5064522;28;13492;-69
2023/03/07 13:01:38;;;;;;;;;;;;;;;;;;5074310;28;8849;-69
2023/03/07 13:04:04;;;;;;;;;19.75;14.75;;;;;;;;5072310;28;8819;-68
2023/03/07 13:06:29;;;;;;;;;16.67;14.67;;;;;;;;5068220;28;13501;-68
2023/03/07 13:08:59;;;;;;;;;20.00;15.75;;;;;;;;5068525;28;13470;-69
2023/03/07 13:11:26;;;;;;;;;18.00;15.50;;;;;;;;5059631;22;13620;-74
2023/03/07 13:13:54;;;;;;;;;14.00;14.00;;;;;;;;5033535;28;8825;-74
2023/03/07 13:16:32;;;;;;;;;17.80;16.40;;;;;;;;5029833;28;13493;-73
2023/03/07 13:19:16;;;;;;;;;18.60;18.40;;;;;;;;5029724;28;14341;-74
2023/03/07 13:21:41;;;;;;;;;20.80;16.80;;;;;;;;5029793;28;13502;-74
2023/03/07 13:24:25;;;;;;;;;21.25;19.00;;;;;;;;5029181;28;15137;-74
2023/03/07 13:26:54;;;;;;;;;19.25;19.00;;;;;;;;5029735;28;14212;-74
2023/03/07 13:29:39;;;;;;;;;21.00;16.00;;;;;;;;5025415;28;13535;-74
2023/03/07 13:32:24;;;;;;;;;16.00;14.67;;;;;;;;5029424;28;13537;-73
2023/03/07 13:34:50;;;;;;;;;21.50;19.25;;;;;;;;5018344;28;13561;-73
2023/03/07 13:37:34;;;;;;;;;16.00;16.00;;;;;;;;5019983;28;13547;-72
2023/03/07 13:40:05;;;;;;;;;21.60;17.60;;;;;;;;5020112;28;13507;-72
2023/03/07 13:42:46;;;;;;;;;14.50;12.75;;;;;;;;5021362;28;8804;-72
2023/03/07 13:45:30;;;;;;;;;19.75;18.50;;;;;;;;5017949;28;13585;-72
2023/03/07 13:47:56;;;;;;;;;19.80;16.00;;;;;;;;5025421;28;13592;-72
2023/03/07 13:50:36;;;;;;;;;26.00;20.00;;;;;;;;5027539;28;13754;-72
2023/03/07 13:53:06;;;;;;;;;20.50;18.25;;;;;;;;5021621;28;13644;-72
2023/03/07 13:55:37;;;;;;;;;19.25;19.25;;;;;;;;5019012;28;13534;-72
2023/03/07 13:58:15;;;;;;;;;23.80;22.80;;;;;;;;5023559;28;14253;-72
2023/03/07 14:00:48;;;;;;;;;23.00;19.00;;;;;;;;5025734;28;15093;-74
2023/03/07 14:03:24;;;;;;;;;23.50;21.00;;;;;;;;5027601;28;13540;-74
2023/03/07 14:05:50;;;;;;;;;22.00;21.00;;;;;;;;5025899;28;13721;-73
2023/03/07 14:08:23;;;;;;;;;21.60;20.20;;;;;;;;5027609;28;14415;-74
2023/03/07 14:10:48;;;;;;;;;25.00;22.20;;;;;;;;5025153;28;13581;-73
2023/03/07 14:13:16;;;;;;;;;24.25;22.00;;;;;;;;5026943;28;13571;-73
2023/03/07 14:16:00;;;;;;;;;23.80;21.80;;;;;;;;5025607;28;15229;-73
2023/03/07 14:18:25;;;;;;;;;24.00;22.00;;;;;;;;5024744;28;13591;-73
2023/03/07 14:20:53;;;;;;;;;25.00;23.00;;;;;;;;5027047;28;13552;-72
2023/03/07 14:23:25;;;;;;;;;20.75;18.50;;;;;;;;5026908;28;13539;-72
2023/03/07 14:25:53;;;;;;;;;24.20;21.40;;;;;;;;5022104;28;13525;-73
2023/03/07 14:28:19;;;;;;;;;24.20;21.60;;;;;;;;5026289;28;13661;-73
2023/03/07 14:30:44;;;;;;;;;;;;;;;;;;5033193;28;9027;-72
2023/03/07 14:33:16;;;;;;;;;20.40;16.40;;;;;;;;5019583;28;8806;-73
2023/03/07 14:35:43;;;;;;;;;22.60;21.00;;;;;;;;5017122;28;13599;-72
2023/03/07 14:38:15;;;;;;;;;21.75;20.75;;;;;;;;5016149;28;13666;-72
2023/03/07 14:41:10;;;;;;;;;22.25;16.50;;;;;;;;5017825;28;13600;-72
2023/03/07 14:43:35;;;;;;;;;22.00;21.00;;;;;;;;4998860;28;13412;-74
2023/03/07 14:46:03;;;;;;;;;23.00;20.00;;;;;;;;5016804;28;14339;-73
2023/03/07 14:48:28;;;;;;;;;18.00;16.00;;;;;;;;5017266;28;13539;-73
2023/03/07 14:50:54;;;;;;;;;22.00;18.00;;;;;;;;5016742;28;14335;-73
2023/03/07 14:53:20;;;;;;;;;19.00;16.67;;;;;;;;5017452;28;14409;-73
2023/03/07 14:55:47;;;;;;;;;18.25;15.75;;;;;;;;5017277;28;13588;-73
2023/03/07 14:58:15;;;;;;;;;18.00;16.60;;;;;;;;5022556;28;13544;-74
2023/03/07 15:00:40;;;;;;;;;13.75;12.75;;;;;;;;5025527;28;14340;-74
2023/03/07 15:03:07;;;;;;;;;12.00;10.50;;;;;;;;5028729;28;11527;-74
2023/03/07 15:05:32;;;;;;;;;15.00;14.40;;;;;;;;5026576;28;13661;-74
2023/03/07 15:07:57;;;;;;;;;15.00;13.00;;;;;;;;5025955;28;13635;-74
2023/03/07 15:10:30;;;;;;;;;16.50;15.75;;;;;;;;5026159;28;13671;-74
2023/03/07 15:12:56;;;;;;;;;14.00;12.00;;;;;;;;5024622;28;13645;-72
2023/03/07 15:15:27;;;;;;;;;18.00;15.00;;;;;;;;5027580;28;13634;-72
2023/03/07 15:17:54;;;;;;;;;19.00;16.50;;;;;;;;5027994;28;14166;-72
2023/03/07 15:20:21;;;;;;;;;16.00;14.60;;;;;;;;5027266;28;13533;-69
2023/03/07 15:22:46;;;;;;;;;;;;;;;;;;5024378;28;9725;-69
2023/03/07 15:25:16;;;;;;;;;8.40;6.80;;;;;;;;5020776;28;9559;-69
2023/03/07 15:27:41;;;;;;;;;12.75;7.75;;;;;;;;5024490;28;8799;-70
